Jersey City, NJ (07399)

7:54 PM EDT on October 22, 2014 (GMT -0400)
Near Red Bull Arena | Change Station
CLOSE
Current Station
Personal Weather Station
Location: Harrison, NJ
Elevation: 23 ft
Nearby Weather Stations

Elev 23 ft 40.74 °N, 74.15 °W | Updated 2 minutes ago

Rain
Rain
51.6 °F
Feels Like 51.6 °F
N
4.0
Wind Variable Wind from SSE
Gusts 9.0 mph

Today
High -- | Low -- °F
--% Chance of Precip.
Yesterday
High -- | Low -- °F
Precip. -- in
7:15 AM 6:05 PM
Waning Crescent, 1% visible
Pressure 29.80 in
Visibility 6.0 miles
Clouds Few 1800 ft
Mostly Cloudy 2300 ft
Overcast 2900 ft
Dew Point 50 °F
Humidity 93%
Rainfall 0.90 in
Snow Depth Not available.
UV 0 out of 12
Pollen .30 out of 12
PM2.5 Good
Flu Activity Sporadic
METAR KEWR 222351Z 34016G24KT 6SM RA BR FEW018 BKN023 OVC029 12/10 A2980 RMK AO2 PK WND 36026/2319 SLP090 P0010 60024 T01170100 10139 20111 58012

More Conditions Fewer Conditions

Pressure 29.80 in
Visibility 6.0 miles
Clouds Few 1800 ft
Mostly Cloudy 2300 ft
Overcast 2900 ft
Dew Point 50 °F
Humidity 93%
Rainfall 0.90 in
Snow Depth Not available.
UV 0 out of 12
Pollen .30 out of 12
PM2.5 Good
Flu Activity Sporadic
METAR KEWR 222351Z 34016G24KT 6SM RA BR FEW018 BKN023 OVC029 12/10 A2980 RMK AO2 PK WND 36026/2319 SLP090 P0010 60024 T01170100 10139 20111 58012

More Conditions Fewer Conditions

10-Day Weather Forecast

Almanac

Astronomy

Oct. 22, 2014 Rise Set
Actual Time 7:15 AM EDT 6:05 PM EDT
Civil Twilight 6:47 AM EDT 6:33 PM EDT
Nautical Twilight 6:15 AM EDT 7:05 PM EDT
Astronomical Twilight 5:43 AM EDT 7:37 PM EDT
Moon 5:53 AM EDT 5:31 PM EDT
Length of Visible Light 11h 46m
Length of Day
10h 50m
Tomorrow will be 2m 33s shorter.
Waning Crescent, 1% of the Moon is Illuminated
Today
Waning Crescent
Oct 23
New
Oct 30
First Quarter
Nov 6
Full
Nov 14
Last Quarter

Today's Extremes

State Highs State Lows

Community

WunderPhotos

Upload Photos

1,764,080 photos uploaded!

WunderBlogs® & News

Nearby

Air Quality

  Air Quality AQ Index Pollutant
Yesterday Good
PM2.5
Yesterday Good
OZONE
Current Good
PM2.5
Wednesday Good
PM2.5
Thursday Good
OZONE

Snow Depth

Station Depth Elevation
No new snow has been reported.

Earthquake Activity

City Distance Mag. Time & Date
No recent earthquake activity has been reported nearby.
Minimum magnitude displayed is 2.5.

Coastal Water Temperatures

Place Temperature
Sandy Hook, NJ 60.1 °F
The Battery, NY 63.0 °F
Bergen Point West Reach, NJ 62.1 °F

Nearby Weather Stations